Time;durP1;ratioP1;P1;durP2;ratioP2;P2;SDS_P1;SDS_P2;PMS_P1;PMS_P2;Temp;Humidity;BMP_temperature;BMP_pressure;BME280_temperature;BME280_humidity;BME280_pressure;Samples;Min_cycle;Max_cycle;Signal;HPM_P1;HPM_P2
2024/02/16 00:01:02;;;;;;;26.55;16.95;;;;;;;7.68;100.00;98896.81;6231043;22;20506;-66
2024/02/16 00:03:28;;;;;;;27.80;16.98;;;;;;;7.92;100.00;98932.06;6230083;22;20008;-66
2024/02/16 00:05:54;;;;;;;27.23;16.25;;;;;;;7.92;100.00;98945.00;6230465;22;20509;-66
2024/02/16 00:08:22;;;;;;;24.50;15.70;;;;;;;7.61;100.00;98893.06;6231219;22;20476;-65
2024/02/16 00:10:48;;;;;;;23.55;16.08;;;;;;;7.93;100.00;98936.31;6233866;22;20015;-66
2024/02/16 00:13:16;;;;;;;25.45;16.73;;;;;;;7.91;100.00;98938.19;6204038;22;20007;-66
2024/02/16 00:15:41;;;;;;;23.52;16.63;;;;;;;7.76;100.00;98944.53;6233077;22;20042;-66
2024/02/16 00:18:07;;;;;;;25.90;15.98;;;;;;;7.61;100.00;98934.47;6205621;22;20043;-66
2024/02/16 00:20:35;;;;;;;23.60;15.85;;;;;;;7.43;100.00;98892.69;6205842;22;20084;-65
2024/02/16 00:23:02;;;;;;;22.52;14.75;;;;;;;7.46;100.00;98897.63;6230967;22;20224;-66
2024/02/16 00:25:28;;;;;;;23.75;15.20;;;;;;;7.74;100.00;98954.19;6259464;22;20716;-66
2024/02/16 00:27:58;;;;;;;24.45;15.75;;;;;;;7.77;100.00;98952.19;6230992;22;20008;-66
2024/02/16 00:30:27;;;;;;;25.77;16.33;;;;;;;7.39;100.00;98899.06;6232506;22;20502;-66
2024/02/16 00:32:52;;;;;;;26.27;17.25;;;;;;;7.64;100.00;98941.16;6232996;22;20045;-66
2024/02/16 00:35:20;;;;;;;27.17;16.98;;;;;;;7.76;100.00;98947.13;6205320;22;20107;-66
2024/02/16 00:37:45;;;;;;;26.23;15.63;;;;;;;7.69;100.00;98949.38;6231646;22;20011;-66
2024/02/16 00:40:12;;;;;;;24.67;15.90;;;;;;;7.35;100.00;98900.22;6232270;22;20397;-65
2024/02/16 00:42:37;;;;;;;27.65;16.65;;;;;;;7.65;100.00;98953.16;6230111;22;20031;-66
2024/02/16 00:45:06;;;;;;;26.65;16.40;;;;;;;7.59;100.00;98943.25;6232517;22;20624;-65
2024/02/16 00:47:32;;;;;;;22.63;15.98;;;;;;;7.26;100.00;98886.22;6231676;22;20015;-66
2024/02/16 00:49:58;;;;;;;24.92;16.58;;;;;;;7.53;100.00;98931.63;6232582;22;20008;-66
2024/02/16 00:52:24;;;;;;;25.83;16.45;;;;;;;7.23;100.00;98896.00;6204182;22;20098;-66
2024/02/16 00:54:49;;;;;;;22.45;15.30;;;;;;;7.39;100.00;98927.50;6232132;22;20427;-66
2024/02/16 00:57:16;;;;;;;24.30;16.05;;;;;;;7.50;100.00;98939.59;6230161;22;20114;-66
2024/02/16 00:59:41;;;;;;;24.80;15.40;;;;;;;7.47;100.00;98940.69;6207282;22;20134;-66
2024/02/16 01:02:10;;;;;;;22.83;15.55;;;;;;;7.44;100.00;98933.13;6203975;22;20709;-66
2024/02/16 01:04:37;;;;;;;24.38;15.35;;;;;;;7.42;100.00;98922.09;6232163;22;20369;-66
2024/02/16 01:07:05;;;;;;;24.70;15.32;;;;;;;7.48;100.00;98932.00;6256698;22;20011;-66
2024/02/16 01:09:33;;;;;;;23.52;15.57;;;;;;;7.44;100.00;98917.63;6206698;22;20025;-65
2024/02/16 01:11:58;;;;;;;22.17;15.15;;;;;;;7.21;100.00;98911.63;6228980;22;20010;-66
2024/02/16 01:14:24;;;;;;;22.67;15.40;;;;;;;7.20;100.00;98929.84;6259398;22;20003;-66
2024/02/16 01:16:49;;;;;;;25.38;15.60;;;;;;;7.28;100.00;98922.31;6204288;22;20023;-66
2024/02/16 01:19:14;;;;;;;22.85;16.02;;;;;;;7.17;100.00;98923.13;6204874;22;20008;-65
2024/02/16 01:21:42;;;;;;;24.15;14.82;;;;;;;7.20;100.00;98914.31;6205898;22;20081;-66
2024/02/16 01:24:09;;;;;;;23.45;15.02;;;;;;;7.12;100.00;98907.97;6205950;22;20067;-66
2024/02/16 01:26:38;;;;;;;27.27;15.88;;;;;;;7.19;100.00;98928.19;6231676;22;20122;-66
2024/02/16 01:29:06;;;;;;;23.27;15.20;;;;;;;7.14;100.00;98933.72;6204858;22;20393;-66
2024/02/16 01:31:36;;;;;;;22.67;14.07;;;;;;;7.16;100.00;98918.91;6229667;22;20154;-66
2024/02/16 01:34:01;;;;;;;24.77;15.82;;;;;;;7.23;100.00;98927.84;6258059;22;20045;-66
2024/02/16 01:36:26;;;;;;;21.83;14.13;;;;;;;6.99;100.00;98924.50;6257475;22;20012;-66
2024/02/16 01:38:54;;;;;;;25.05;15.38;;;;;;;7.04;100.00;98930.16;6231349;22;20628;-66
2024/02/16 01:41:20;;;;;;;27.85;15.45;;;;;;;6.97;100.00;98919.44;6231677;22;20003;-66
2024/02/16 01:43:47;;;;;;;23.70;14.95;;;;;;;7.11;100.00;98921.00;6229587;22;20088;-66
2024/02/16 01:46:13;;;;;;;21.98;14.75;;;;;;;7.12;100.00;98920.06;6230701;22;20003;-66
2024/02/16 01:48:41;;;;;;;26.15;15.18;;;;;;;7.11;100.00;98914.06;6230845;22;20010;-65
2024/02/16 01:51:08;;;;;;;26.85;15.70;;;;;;;7.12;100.00;98912.31;6232832;22;20032;-66
2024/02/16 01:53:37;;;;;;;23.98;14.40;;;;;;;7.12;100.00;98915.72;6209081;22;20015;-66
2024/02/16 01:56:03;;;;;;;23.10;13.93;;;;;;;7.10;100.00;98920.19;6229703;22;20389;-66
2024/02/16 01:58:31;;;;;;;24.05;13.80;;;;;;;7.13;100.00;98927.69;6231566;22;20053;-66
2024/02/16 02:00:56;;;;;;;28.02;15.88;;;;;;;7.11;100.00;98916.66;6230002;22;20042;-65
2024/02/16 02:03:22;;;;;;;25.27;15.57;;;;;;;7.13;100.00;98916.53;6229806;22;20107;-66
2024/02/16 02:05:49;;;;;;;24.08;14.55;;;;;;;6.98;100.00;98925.44;6228182;22;20007;-66
2024/02/16 02:08:17;;;;;;;20.25;12.90;;;;;;;7.00;100.00;98915.81;6230253;22;20535;-66
2024/02/16 02:10:43;;;;;;;20.35;12.85;;;;;;;6.92;100.00;98909.44;6206056;22;20587;-65
2024/02/16 02:13:08;;;;;;;20.25;12.73;;;;;;;6.99;100.00;98921.91;6205193;22;20018;-66
2024/02/16 02:15:34;;;;;;;24.40;13.10;;;;;;;6.85;100.00;98903.09;6231785;22;20379;-66
2024/02/16 02:18:00;;;;;;;18.00;12.60;;;;;;;6.94;100.00;98917.09;6230633;22;20107;-65
2024/02/16 02:20:25;;;;;;;20.38;13.02;;;;;;;6.77;100.00;98887.31;6206964;22;20024;-66
2024/02/16 02:22:51;;;;;;;21.98;13.55;;;;;;;6.98;100.00;98917.69;6204920;22;20012;-66
2024/02/16 02:25:16;;;;;;;22.48;13.75;;;;;;;6.93;100.00;98899.94;6230889;22;20367;-66
2024/02/16 02:27:44;;;;;;;18.70;12.60;;;;;;;6.92;100.00;98900.88;6205544;22;20102;-66
2024/02/16 02:30:12;;;;;;;21.77;13.20;;;;;;;6.49;100.00;98854.94;6230669;22;20000;-66
2024/02/16 02:32:37;;;;;;;23.40;13.02;;;;;;;6.37;100.00;98885.09;6229613;22;20008;-66
2024/02/16 02:35:04;;;;;;;21.20;13.50;;;;;;;6.50;100.00;98879.84;6230617;22;20012;-66
2024/02/16 02:37:31;;;;;;;20.33;13.45;;;;;;;6.63;100.00;98879.78;6205267;22;20037;-66
2024/02/16 02:39:57;;;;;;;22.70;14.05;;;;;;;6.70;100.00;98878.38;6229498;22;20048;-66
2024/02/16 02:42:22;;;;;;;20.63;12.80;;;;;;;6.67;100.00;98878.59;6229803;22;20035;-66
2024/02/16 02:44:50;;;;;;;19.30;13.10;;;;;;;6.61;100.00;98882.47;6207099;22;20023;-65
2024/02/16 02:47:16;;;;;;;20.48;13.50;;;;;;;6.42;100.00;98877.81;6229858;22;20000;-66
2024/02/16 02:49:42;;;;;;;19.83;12.45;;;;;;;6.46;100.00;98865.50;6206425;22;20404;-65
2024/02/16 02:52:12;;;;;;;19.33;12.63;;;;;;;6.32;100.00;98830.34;6230795;22;20023;-66
2024/02/16 02:54:38;;;;;;;21.25;13.80;;;;;;;6.46;100.00;98870.66;6204257;22;20026;-66
2024/02/16 02:57:03;;;;;;;19.85;13.48;;;;;;;6.43;100.00;98869.13;6205537;22;20008;-66
2024/02/16 02:59:29;;;;;;;22.45;13.85;;;;;;;6.18;100.00;98874.44;6231009;22;20019;-66
2024/02/16 03:01:54;;;;;;;20.67;13.27;;;;;;;6.45;100.00;98871.59;6229713;22;20008;-66
2024/02/16 03:04:20;;;;;;;20.45;13.52;;;;;;;6.21;100.00;98807.91;6233524;22;20689;-65
2024/02/16 03:06:45;;;;;;;19.40;14.07;;;;;;;6.61;100.00;98861.78;6232523;22;20011;-66
2024/02/16 03:09:14;;;;;;;22.13;14.82;;;;;;;6.64;100.00;98868.50;6207757;22;20381;-66
2024/02/16 03:11:42;;;;;;;19.43;13.23;;;;;;;6.44;100.00;98820.88;6206883;22;20010;-66
2024/02/16 03:14:10;;;;;;;20.15;13.40;;;;;;;6.81;100.00;98849.97;6232647;22;20007;-66
2024/02/16 03:16:35;;;;;;;20.77;12.80;;;;;;;6.85;100.00;98856.56;6232093;22;20098;-66
2024/02/16 03:19:03;;;;;;;18.75;13.55;;;;;;;6.94;100.00;98862.81;6232585;22;20531;-66
2024/02/16 03:21:28;;;;;;;21.63;13.13;;;;;;;6.68;100.00;98836.31;6231300;22;20086;-66
2024/02/16 03:23:53;;;;;;;18.70;13.70;;;;;;;6.73;100.00;98870.38;6232730;22;20130;-66
2024/02/16 03:26:20;;;;;;;18.20;12.57;;;;;;;6.63;100.00;98857.34;6231689;22;20022;-66
2024/02/16 03:28:52;;;;;;;20.38;12.63;;;;;;;6.79;100.00;98866.53;6205547;22;20794;-66
2024/02/16 03:31:28;;;;;;;20.80;13.50;;;;;;;6.86;100.00;98859.97;6259238;22;20030;-66
2024/02/16 03:33:54;;;;;;;21.60;13.45;;;;;;;6.85;100.00;98863.50;6205202;22;20011;-66
2024/02/16 03:36:22;;;;;;;19.02;11.93;;;;;;;6.86;100.00;98854.78;6206848;22;20008;-65
2024/02/16 03:38:53;;;;;;;18.08;11.82;;;;;;;6.84;100.00;98843.75;6231475;22;20083;-66
2024/02/16 03:41:20;;;;;;;19.60;11.82;;;;;;;6.95;100.00;98855.88;6232770;22;20008;-66
2024/02/16 03:43:46;;;;;;;16.02;11.05;;;;;;;6.88;100.00;98855.50;6231141;22;20011;-66
2024/02/16 03:46:11;;;;;;;18.08;11.48;;;;;;;6.91;100.00;98861.25;6232496;22;20003;-66
2024/02/16 03:48:37;;;;;;;16.92;11.63;;;;;;;6.70;100.00;98796.50;6227820;23;20012;-66
2024/02/16 03:51:09;;;;;;;15.18;11.05;;;;;;;7.03;100.00;98846.59;6203345;22;20012;-66
2024/02/16 03:53:35;;;;;;;16.65;11.30;;;;;;;7.03;100.00;98854.34;6232803;22;20390;-66
2024/02/16 03:56:00;;;;;;;15.82;11.43;;;;;;;7.09;100.00;98853.06;6206089;22;20016;-65
2024/02/16 03:58:26;;;;;;;16.08;10.93;;;;;;;7.08;100.00;98848.81;6231896;22;20020;-66
2024/02/16 04:00:58;;;;;;;17.15;10.75;;;;;;;7.17;100.00;98858.47;6227719;22;20012;-66
2024/02/16 04:03:23;;;;;;;17.67;10.93;;;;;;;6.95;100.00;98830.81;6207627;22;20004;-66
2024/02/16 04:05:52;;;;;;;18.40;11.30;;;;;;;6.88;100.00;98814.13;6228135;22;20015;-66
2024/02/16 04:08:18;;;;;;;16.92;11.32;;;;;;;7.11;100.00;98857.16;6206397;22;20008;-66
2024/02/16 04:10:45;;;;;;;18.02;11.35;;;;;;;7.09;100.00;98848.72;6233030;22;20015;-66
2024/02/16 04:13:10;;;;;;;16.15;10.73;;;;;;;7.07;100.00;98853.19;6230765;22;20078;-66
2024/02/16 04:15:36;;;;;;;19.15;11.68;;;;;;;7.04;100.00;98850.81;6231066;22;20279;-66
2024/02/16 04:18:01;;;;;;;15.57;11.02;;;;;;;7.17;100.00;98849.88;6231243;22;20004;-66
2024/02/16 04:20:30;;;;;;;15.45;10.27;;;;;;;6.89;100.00;98803.69;6230510;22;20387;-66
2024/02/16 04:22:55;;;;;;;16.58;11.35;;;;;;;7.26;100.00;98855.16;6208307;22;20095;-65
2024/02/16 04:25:21;;;;;;;16.80;10.38;;;;;;;7.01;100.00;98814.03;6257834;22;20805;-66
2024/02/16 04:27:51;;;;;;;15.30;10.55;;;;;;;7.30;100.00;98854.00;6231931;22;20436;-66
2024/02/16 04:30:16;;;;;;;15.68;11.25;;;;;;;7.29;100.00;98856.72;6229939;22;20011;-65
2024/02/16 04:32:42;;;;;;;15.73;10.75;;;;;;;7.25;100.00;98852.72;6231666;22;20007;-66
2024/02/16 04:35:11;;;;;;;18.05;11.52;;;;;;;7.20;100.00;98844.50;6205676;22;20019;-65
2024/02/16 04:37:39;;;;;;;19.30;11.55;;;;;;;6.90;100.00;98799.34;6205811;22;20019;-66
2024/02/16 04:40:11;;;;;;;16.30;11.07;;;;;;;7.21;100.00;98849.56;6259509;22;20073;-66
2024/02/16 04:42:40;;;;;;;18.35;11.10;;;;;;;7.22;100.00;98858.94;6232484;22;20011;-66
2024/02/16 04:45:08;;;;;;;17.13;11.73;;;;;;;7.20;100.00;98860.81;6207666;22;20107;-65
2024/02/16 04:47:36;;;;;;;17.05;11.70;;;;;;;7.15;100.00;98855.16;6231116;22;20657;-66
2024/02/16 04:50:05;;;;;;;18.38;11.68;;;;;;;7.20;100.00;98849.66;6231310;22;20101;-65
2024/02/16 04:52:32;;;;;;;18.13;12.05;;;;;;;7.02;100.00;98815.69;6258918;22;20437;-66
2024/02/16 04:55:00;;;;;;;17.45;12.75;;;;;;;7.20;100.00;98847.88;6205287;22;20007;-66
2024/02/16 04:57:25;;;;;;;19.15;11.68;;;;;;;7.21;100.00;98854.72;6231497;22;20011;-66
2024/02/16 04:59:55;;;;;;;18.67;11.32;;;;;;;7.17;100.00;98850.69;6201486;22;20016;-64
2024/02/16 05:02:21;;;;;;;16.95;11.45;;;;;;;7.21;100.00;98853.88;6232627;22;20011;-66
2024/02/16 05:04:46;;;;;;;17.60;11.30;;;;;;;7.18;100.00;98842.00;6232424;22;20018;-65
2024/02/16 05:07:11;;;;;;;16.70;11.52;;;;;;;7.20;100.00;98841.91;6205636;22;20097;-66
2024/02/16 05:09:37;;;;;;;16.42;11.10;;;;;;;7.20;100.00;98836.72;6200633;23;20157;-66
2024/02/16 05:12:08;;;;;;;15.93;11.50;;;;;;;7.19;100.00;98838.50;6203120;22;20342;-66
2024/02/16 05:14:36;;;;;;;15.88;11.15;;;;;;;6.88;100.00;98796.03;6231851;22;20007;-66
2024/02/16 05:17:03;;;;;;;15.27;11.57;;;;;;;7.00;100.00;98846.00;6202835;22;20043;-65
2024/02/16 05:19:32;;;;;;;16.13;11.35;;;;;;;7.01;100.00;98842.47;6206385;22;20096;-66
2024/02/16 05:22:00;;;;;;;15.20;10.90;;;;;;;7.07;100.00;98837.66;6226739;22;20562;-66
2024/02/16 05:24:28;;;;;;;16.08;10.60;;;;;;;7.09;100.00;98842.72;6205039;22;20042;-66
2024/02/16 05:26:56;;;;;;;15.32;11.30;;;;;;;7.05;100.00;98838.72;6258356;22;20011;-65
2024/02/16 05:29:24;;;;;;;16.70;11.07;;;;;;;6.99;100.00;98826.25;6230011;22;20015;-66
2024/02/16 05:31:53;;;;;;;17.40;11.40;;;;;;;7.01;100.00;98832.97;6232902;22;20008;-65
2024/02/16 05:34:19;;;;;;;17.85;11.73;;;;;;;7.07;100.00;98832.50;6229348;22;20003;-66
2024/02/16 05:36:44;;;;;;;17.05;11.27;;;;;;;7.10;100.00;98844.34;6207363;22;20022;-66
2024/02/16 05:39:20;;;;;;;17.60;11.63;;;;;;;7.00;100.00;98843.41;6228834;22;20027;-66
2024/02/16 05:41:46;;;;;;;15.50;10.23;;;;;;;6.97;100.00;98834.13;6209290;22;20058;-66
2024/02/16 05:44:11;;;;;;;14.63;10.68;;;;;;;7.01;100.00;98838.13;6230433;22;20503;-66
2024/02/16 05:46:39;;;;;;;17.98;11.65;;;;;;;7.08;100.00;98841.06;6205557;22;20023;-65
2024/02/16 05:49:07;;;;;;;15.38;11.52;;;;;;;7.06;100.00;98848.13;6230361;22;20027;-65
2024/02/16 05:52:17;;;;;;;15.52;10.82;;;;;;;7.05;100.00;98838.72;6228842;22;20287;-65
2024/02/16 05:54:22;;;;;;;19.00;11.50;;;;;;;6.85;100.00;98837.66;6210472;22;20775;-66
2024/02/16 05:56:49;;;;;;;15.70;11.13;;;;;;;6.72;100.00;98798.97;6230121;22;20011;-65
2024/02/16 05:59:17;;;;;;;14.65;10.77;;;;;;;6.95;100.00;98833.41;6258043;22;20011;-66
2024/02/16 06:01:45;;;;;;;16.27;10.75;;;;;;;6.55;100.00;98784.72;6258525;22;20912;-66
2024/02/16 06:04:11;;;;;;;14.20;10.32;;;;;;;6.78;100.00;98839.03;6232593;22;20241;-66
2024/02/16 06:06:39;;;;;;;18.13;10.65;;;;;;;6.71;100.00;98829.16;6230102;22;20165;-65
2024/02/16 06:09:06;;;;;;;15.38;10.82;;;;;;;6.67;100.00;98840.66;6228762;22;20008;-66
2024/02/16 06:11:31;;;;;;;17.15;11.13;;;;;;;6.68;100.00;98844.91;6206790;22;20011;-66
2024/02/16 06:13:57;;;;;;;15.90;11.05;;;;;;;6.78;100.00;98844.22;6229525;22;20488;-66
2024/02/16 06:16:22;;;;;;;15.30;10.63;;;;;;;6.24;100.00;98766.38;6231252;22;20027;-66
2024/02/16 06:18:49;;;;;;;16.13;11.02;;;;;;;6.61;100.00;98829.94;6228510;22;20095;-66
2024/02/16 06:21:16;;;;;;;16.08;10.57;;;;;;;6.71;100.00;98856.75;6256041;22;20008;-66
2024/02/16 06:23:42;;;;;;;18.08;11.57;;;;;;;6.49;100.00;98834.28;6222779;22;20016;-66
2024/02/16 06:26:09;;;;;;;16.75;11.10;;;;;;;6.70;100.00;98868.88;6200284;22;20706;-64
2024/02/16 06:28:38;;;;;;;15.35;10.93;;;;;;;6.64;100.00;98860.72;6248306;22;20062;-67
2024/02/16 06:31:06;;;;;;;18.63;10.48;;;;;;;6.64;100.00;98871.06;6221842;22;20042;-64
2024/02/16 06:33:31;;;;;;;15.15;10.18;;;;;;;6.64;100.00;98868.50;6225576;22;20012;-66
2024/02/16 06:35:57;;;;;;;16.15;10.63;;;;;;;6.72;100.00;98876.50;6252102;22;20007;-66
2024/02/16 06:38:22;;;;;;;14.93;10.60;;;;;;;6.69;100.00;98867.22;6231166;22;20094;-65
2024/02/16 06:40:48;;;;;;;15.80;10.75;;;;;;;6.53;100.00;98839.13;6230360;22;20030;-66
2024/02/16 06:43:14;;;;;;;16.13;9.77;;;;;;;6.76;100.00;98872.75;6224551;22;20062;-66
2024/02/16 06:45:40;;;;;;;13.38;9.50;;;;;;;6.71;100.00;98860.16;6202126;22;20019;-66
2024/02/16 06:48:06;;;;;;;14.93;10.20;;;;;;;6.76;100.00;98872.75;6227637;22;20097;-66
2024/02/16 06:50:33;;;;;;;14.35;10.13;;;;;;;6.81;100.00;98864.63;6200301;22;20020;-66
2024/02/16 06:52:59;;;;;;;14.23;9.77;;;;;;;6.87;100.00;98880.53;6202348;22;20511;-66
2024/02/16 06:55:25;;;;;;;14.32;9.60;;;;;;;6.76;100.00;98870.16;6229406;22;20057;-66
2024/02/16 06:57:50;;;;;;;15.57;10.30;;;;;;;6.54;100.00;98866.59;6226033;22;20604;-66
2024/02/16 07:00:16;;;;;;;16.00;10.38;;;;;;;6.61;100.00;98866.97;6228675;22;20015;-66
2024/02/16 07:02:44;;;;;;;15.45;10.10;;;;;;;6.68;100.00;98875.06;6229070;22;20517;-66
2024/02/16 07:05:11;;;;;;;15.15;9.88;;;;;;;6.76;100.00;98883.09;6228578;22;20004;-66
2024/02/16 07:07:36;;;;;;;13.65;9.45;;;;;;;6.83;100.00;98888.63;6230137;22;20011;-66
2024/02/16 07:10:02;;;;;;;15.95;9.35;;;;;;;6.74;100.00;98883.19;6228463;22;20528;-65
2024/02/16 07:12:27;;;;;;;14.02;9.00;;;;;;;6.74;100.00;98883.19;6205045;22;20016;-66
2024/02/16 07:14:55;;;;;;;15.52;10.45;;;;;;;6.78;100.00;98883.78;6201276;22;20372;-66
2024/02/16 07:17:20;;;;;;;15.90;9.75;;;;;;;6.66;100.00;98885.53;6231171;22;20083;-66
2024/02/16 07:19:48;;;;;;;16.73;10.50;;;;;;;6.66;100.00;98887.28;6227999;22;20395;-66
2024/02/16 07:22:16;;;;;;;16.58;10.40;;;;;;;6.63;100.00;98890.94;6204499;22;20012;-66
2024/02/16 07:24:43;;;;;;;13.95;9.95;;;;;;;6.55;100.00;98885.47;6204766;22;20023;-65
2024/02/16 07:27:10;;;;;;;13.10;9.40;;;;;;;6.17;100.00;98842.63;6228576;22;20014;-66
2024/02/16 07:29:38;;;;;;;15.63;10.63;;;;;;;6.63;100.00;98903.03;6205942;22;20672;-66
2024/02/16 07:32:05;;;;;;;15.57;10.38;;;;;;;6.59;100.00;98902.44;6201797;22;20033;-66
2024/02/16 07:34:31;;;;;;;14.32;9.68;;;;;;;6.40;100.00;98894.38;6230265;22;20225;-66
2024/02/16 07:36:57;;;;;;;17.02;10.48;;;;;;;6.51;100.00;98891.81;6254885;22;20624;-65
2024/02/16 07:39:23;;;;;;;16.27;10.25;;;;;;;6.72;100.00;98897.19;6230321;22;20427;-66
2024/02/16 07:41:49;;;;;;;18.83;10.20;;;;;;;6.71;100.00;98896.34;6226131;22;20039;-66
2024/02/16 07:44:14;;;;;;;21.95;11.90;;;;;;;6.80;100.00;98891.44;6231216;22;20062;-66
2024/02/16 07:46:43;;;;;;;18.80;10.50;;;;;;;6.82;100.00;98899.91;6226645;22;20086;-66
2024/02/16 07:49:11;;;;;;;16.67;10.40;;;;;;;6.89;100.00;98893.34;6226860;22;20700;-65
2024/02/16 07:51:37;;;;;;;16.33;10.55;;;;;;;6.93;100.00;98892.16;6227941;22;20464;-66
2024/02/16 07:54:03;;;;;;;18.60;10.50;;;;;;;6.78;100.00;98872.66;6228496;22;20026;-67
2024/02/16 07:56:30;;;;;;;17.83;11.02;;;;;;;6.84;100.00;98883.34;6229455;22;20742;-66
2024/02/16 07:58:55;;;;;;;19.45;10.68;;;;;;;6.89;100.00;98886.41;6256352;22;20053;-67
2024/02/16 08:01:23;;;;;;;15.60;10.63;;;;;;;6.81;100.00;98893.91;6230419;22;20125;-67
2024/02/16 08:03:56;;;;;;;15.50;10.50;;;;;;;6.72;100.00;98881.69;6253893;22;20065;-67
2024/02/16 08:06:25;;;;;;;16.17;10.02;;;;;;;6.73;100.00;98885.91;6205593;22;20486;-67
2024/02/16 08:08:53;;;;;;;15.65;10.40;;;;;;;6.40;100.00;98842.69;6227294;22;20014;-66
2024/02/16 08:11:20;;;;;;;15.13;10.35;;;;;;;6.76;100.00;98890.03;6228951;22;20008;-66
2024/02/16 08:13:45;;;;;;;16.00;10.27;;;;;;;6.77;100.00;98892.47;6227766;22;20428;-67
2024/02/16 08:16:10;;;;;;;17.33;11.02;;;;;;;6.89;100.00;98890.75;6203884;22;20030;-66
2024/02/16 08:18:36;;;;;;;15.40;10.25;;;;;;;6.94;100.00;98888.66;6224620;23;20472;-66
2024/02/16 08:21:04;;;;;;;14.93;10.25;;;;;;;6.97;100.00;98890.19;6225213;22;20074;-66
2024/02/16 08:23:31;;;;;;;14.98;10.15;;;;;;;6.99;100.00;98888.28;6257265;22;20007;-66
2024/02/16 08:26:00;;;;;;;14.27;10.25;;;;;;;7.02;100.00;98885.50;6219292;22;20027;-65
2024/02/16 08:28:26;;;;;;;15.20;10.18;;;;;;;7.03;100.00;98890.56;6222289;22;20014;-66
2024/02/16 08:30:58;;;;;;;16.00;11.05;;;;;;;7.05;100.00;98893.84;6222055;22;20012;-66
2024/02/16 08:33:26;;;;;;;16.00;10.07;;;;;;;7.12;100.00;98892.44;6250847;22;20014;-66
2024/02/16 08:35:54;;;;;;;14.73;9.70;;;;;;;6.77;100.00;98816.72;6197196;22;20038;-65
2024/02/16 08:38:20;;;;;;;14.27;10.25;;;;;;;7.21;100.00;98896.09;6221405;22;20011;-65
2024/02/16 08:40:53;;;;;;;15.65;10.15;;;;;;;6.89;100.00;98841.66;6197924;22;20379;-66
2024/02/16 08:43:18;;;;;;;12.80;9.65;;;;;;;7.22;100.00;98892.56;6218632;23;20122;-66
2024/02/16 08:45:43;;;;;;;14.80;9.98;;;;;;;7.27;100.00;98892.22;6193057;23;20684;-66
2024/02/16 08:48:09;;;;;;;14.43;10.40;;;;;;;7.32;100.00;98896.09;6248623;22;20023;-66
2024/02/16 08:50:34;;;;;;;14.73;10.88;;;;;;;7.36;100.00;98901.06;6247344;22;20156;-65
2024/02/16 08:53:00;;;;;;;16.20;10.43;;;;;;;7.33;100.00;98889.16;6222749;22;20087;-65
2024/02/16 08:55:26;;;;;;;16.45;10.85;;;;;;;7.45;100.00;98900.34;6194485;22;20019;-65
2024/02/16 08:57:53;;;;;;;14.05;9.65;;;;;;;7.51;100.00;98903.28;6193467;22;20012;-65
2024/02/16 09:00:19;;;;;;;15.13;10.95;;;;;;;7.43;100.00;98905.63;6221111;22;20019;-66
2024/02/16 09:02:46;;;;;;;14.38;10.63;;;;;;;7.53;100.00;98912.69;6196063;22;20087;-67
2024/02/16 09:05:11;;;;;;;15.00;10.48;;;;;;;7.53;100.00;98902.34;6221847;22;20011;-67
2024/02/16 09:07:39;;;;;;;14.90;10.82;;;;;;;7.59;100.00;98905.25;6199581;22;20147;-66
2024/02/16 09:10:10;;;;;;;17.48;11.55;;;;;;;7.58;100.00;98892.47;6221453;22;20035;-66
2024/02/16 09:12:38;;;;;;;16.40;10.52;;;;;;;7.68;100.00;98901.13;6196159;22;20012;-66
2024/02/16 09:15:05;;;;;;;14.98;11.02;;;;;;;7.66;100.00;98913.38;6221858;22;20003;-66
2024/02/16 09:17:31;;;;;;;14.75;10.35;;;;;;;7.61;100.00;98911.16;6196049;22;20041;-66
2024/02/16 09:19:56;;;;;;;13.65;10.27;;;;;;;7.31;100.00;98880.69;6197240;22;20011;-66
2024/02/16 09:22:25;;;;;;;13.27;10.00;;;;;;;7.55;100.00;98916.78;6220428;22;20004;-66
2024/02/16 09:24:54;;;;;;;15.15;10.52;;;;;;;7.17;100.00;98868.81;6197141;22;20012;-66
2024/02/16 09:27:24;;;;;;;15.23;10.95;;;;;;;7.55;100.00;98923.75;6248381;22;20462;-67
2024/02/16 09:29:54;;;;;;;16.90;10.80;;;;;;;7.56;100.00;98918.47;6221968;22;20352;-66
2024/02/16 09:32:19;;;;;;;17.73;11.25;;;;;;;7.57;100.00;98914.91;6221061;22;19999;-66
2024/02/16 09:34:44;;;;;;;15.07;10.68;;;;;;;7.60;100.00;98908.69;6222333;22;20408;-67
2024/02/16 09:37:12;;;;;;;18.30;11.13;;;;;;;7.72;100.00;98912.94;6248763;22;20679;-65
2024/02/16 09:39:37;;;;;;;16.13;11.27;;;;;;;7.76;100.00;98911.75;6221998;22;20494;-66
2024/02/16 09:42:03;;;;;;;16.63;11.43;;;;;;;7.68;100.00;98888.19;6196488;22;20061;-66
2024/02/16 09:44:28;;;;;;;15.40;10.57;;;;;;;7.96;100.00;98919.69;6219550;22;20874;-66
2024/02/16 09:46:54;;;;;;;16.20;10.82;;;;;;;7.70;100.00;98881.13;6221210;22;20027;-66
2024/02/16 09:49:22;;;;;;;15.40;11.32;;;;;;;8.00;100.00;98921.13;6220697;22;20034;-66
2024/02/16 09:51:48;;;;;;;14.88;11.02;;;;;;;7.94;100.00;98921.59;6222086;22;20012;-66
2024/02/16 09:54:13;;;;;;;15.40;10.88;;;;;;;8.08;100.00;98916.97;6220778;22;20054;-66
2024/02/16 09:56:39;;;;;;;16.77;12.25;;;;;;;7.80;100.00;98873.50;6221343;22;20015;-66
2024/02/16 09:59:08;;;;;;;18.77;12.52;;;;;;;8.11;100.00;98930.63;6221633;22;20007;-66
2024/02/16 10:01:33;;;;;;;16.77;12.33;;;;;;;8.22;100.00;98915.06;6221768;22;20010;-66
2024/02/16 10:04:08;;;;;;;17.10;12.00;;;;;;;8.30;100.00;98923.03;6220866;22;20008;-66
2024/02/16 10:06:46;;;;;;;16.13;11.43;;;;;;;8.35;100.00;98920.09;6248968;22;20027;-66
2024/02/16 10:09:22;;;;;;;16.02;11.60;;;;;;;8.41;100.00;98924.78;6220537;22;20018;-66
2024/02/16 10:11:47;;;;;;;17.98;12.13;;;;;;;8.52;100.00;98919.56;6219839;22;20034;-66
2024/02/16 10:14:15;;;;;;;14.68;10.82;;;;;;;8.55;100.00;98916.75;6221700;22;20015;-66
2024/02/16 10:16:43;;;;;;;14.65;10.65;;;;;;;8.42;100.00;98890.19;6221834;22;20846;-66
2024/02/16 10:19:14;;;;;;;18.35;11.70;;;;;;;8.36;100.00;98888.03;6248482;22;20019;-66
2024/02/16 10:21:40;;;;;;;15.52;11.45;;;;;;;8.19;100.00;98877.25;6221704;22;20010;-66
2024/02/16 10:24:10;;;;;;;14.32;10.50;;;;;;;8.32;100.00;98915.94;6196936;22;20019;-66
2024/02/16 10:26:38;;;;;;;13.93;10.57;;;;;;;8.36;100.00;98919.97;6220450;22;20512;-66
2024/02/16 10:29:18;;;;;;;17.37;10.63;;;;;;;8.39;100.00;98924.06;6188960;22;20754;-66
2024/02/16 10:31:44;;;;;;;14.73;10.43;;;;;;;8.33;100.00;98915.03;6213562;22;20033;-66
2024/02/16 10:34:12;;;;;;;16.80;10.88;;;;;;;8.37;100.00;98918.19;6213815;22;20425;-66
2024/02/16 10:36:38;;;;;;;17.70;11.13;;;;;;;8.45;100.00;98926.19;6192919;22;20038;-66
2024/02/16 10:39:06;;;;;;;15.30;11.20;;;;;;;8.53;100.00;98925.59;6215647;22;20104;-65
2024/02/16 10:41:36;;;;;;;16.23;10.32;;;;;;;8.56;100.00;98925.31;6218427;22;20019;-66
2024/02/16 10:44:05;;;;;;;16.05;9.95;;;;;;;8.60;100.00;98921.56;6218235;22;20015;-65
2024/02/16 10:46:31;;;;;;;15.98;10.38;;;;;;;8.69;100.00;98927.75;6218474;22;20927;-66
2024/02/16 10:48:57;;;;;;;13.93;10.30;;;;;;;8.80;100.00;98912.97;6194714;22;20023;-66
2024/02/16 10:51:31;;;;;;;14.43;10.20;;;;;;;8.70;99.39;98911.25;6194060;22;20007;-66
2024/02/16 10:53:58;;;;;;;14.80;10.35;;;;;;;8.75;98.91;98909.13;6193003;22;20111;-66
2024/02/16 10:56:36;;;;;;;16.30;10.90;;;;;;;8.72;100.00;98912.75;6192872;22;20065;-66
2024/02/16 10:59:07;;;;;;;17.67;10.50;;;;;;;8.88;99.99;98909.75;6217659;22;20035;-66
2024/02/16 11:01:37;;;;;;;14.27;10.02;;;;;;;8.97;99.91;98916.75;6205643;22;20015;-66
2024/02/16 11:04:04;;;;;;;14.07;10.48;;;;;;;8.96;97.92;98915.13;6192317;22;20022;-66
2024/02/16 11:06:29;;;;;;;15.10;9.50;;;;;;;9.07;98.07;98916.00;6221967;22;20487;-66
2024/02/16 11:09:10;;;;;;;15.98;10.07;;;;;;;9.09;97.92;98912.34;6251117;22;20010;-66
2024/02/16 11:11:38;;;;;;;14.07;10.07;;;;;;;8.92;100.00;98900.75;6198116;22;20004;-65
2024/02/16 11:14:16;;;;;;;13.73;10.40;;;;;;;8.83;100.00;98910.13;6224369;22;20007;-66
2024/02/16 11:16:47;;;;;;;15.50;10.80;;;;;;;8.75;100.00;98876.22;6196564;22;20015;-65